Time;durP1;ratioP1;P1;durP2;ratioP2;P2;SDS_P1;SDS_P2;PMS_P1;PMS_P2;Temp;Humidity;BMP_temperature;BMP_pressure;BME280_temperature;BME280_humidity;BME280_pressure;Samples;Min_cycle;Max_cycle;Signal;HPM_P1;HPM_P2
2023/12/16 00:01:49;;;;;;;4.75;2.08;;;9.50;91.30;;;;;;6120891;23;20006;-67
2023/12/16 00:04:14;;;;;;;4.68;2.28;;;9.50;91.20;;;;;;6121207;23;20135;-66
2023/12/16 00:06:40;;;;;;;3.88;2.33;;;9.50;91.10;;;;;;6121473;23;20006;-67
2023/12/16 00:09:06;;;;;;;5.13;2.20;;;9.50;91.10;;;;;;6121934;23;19998;-67
2023/12/16 00:11:31;;;;;;;5.13;2.40;;;9.40;91.00;;;;;;6122561;23;20002;-67
2023/12/16 00:13:57;;;;;;;2.88;1.80;;;9.50;91.10;;;;;;6123452;23;20450;-67
2023/12/16 00:16:25;;;;;;;6.78;2.80;;;9.40;91.00;;;;;;6122971;23;20061;-67
2023/12/16 00:18:51;;;;;;;5.75;2.72;;;9.40;91.00;;;;;;6122364;23;20009;-67
2023/12/16 00:21:16;;;;;;;5.05;2.17;;;9.40;91.00;;;;;;6096622;23;20005;-66
2023/12/16 00:23:42;;;;;;;6.63;2.28;;;9.40;91.00;;;;;;6123361;23;20069;-67
2023/12/16 00:26:08;;;;;;;6.28;2.40;;;9.40;91.10;;;;;;6122532;23;20033;-66
2023/12/16 00:28:33;;;;;;;5.82;2.03;;;9.40;91.10;;;;;;6122754;23;20017;-67
2023/12/16 00:30:59;;;;;;;3.20;1.95;;;9.50;91.10;;;;;;6122555;23;20002;-66
2023/12/16 00:33:24;;;;;;;3.47;2.00;;;9.40;91.00;;;;;;6122927;23;20013;-67
2023/12/16 00:35:50;;;;;;;4.95;2.17;;;9.40;91.00;;;;;;6122474;23;20024;-67
2023/12/16 00:38:15;;;;;;;4.80;2.05;;;9.50;91.00;;;;;;6123016;23;20502;-66
2023/12/16 00:40:41;;;;;;;7.80;3.00;;;9.40;91.00;;;;;;6122541;23;20006;-66
2023/12/16 00:43:06;;;;;;;4.57;2.35;;;9.50;90.90;;;;;;6122774;23;20002;-66
2023/12/16 00:45:32;;;;;;;4.30;2.20;;;9.50;90.90;;;;;;6122793;23;20002;-66
2023/12/16 00:47:58;;;;;;;4.53;1.73;;;9.40;90.90;;;;;;6096629;23;20013;-66
2023/12/16 00:50:24;;;;;;;4.95;1.98;;;9.40;90.90;;;;;;6122239;23;20532;-66
2023/12/16 00:52:49;;;;;;;5.10;1.67;;;9.40;90.90;;;;;;6120678;23;20002;-66
2023/12/16 00:55:15;;;;;;;5.75;2.28;;;9.40;90.90;;;;;;6122429;23;20069;-66
2023/12/16 00:57:40;;;;;;;3.33;1.55;;;9.40;90.90;;;;;;6122602;23;20032;-66
2023/12/16 01:00:07;;;;;;;4.28;1.58;;;9.40;90.80;;;;;;6122071;23;20006;-64
2023/12/16 01:02:32;;;;;;;2.15;1.42;;;9.40;90.80;;;;;;6122129;23;20432;-66
2023/12/16 01:04:58;;;;;;;3.80;1.67;;;9.30;90.80;;;;;;6122477;23;20074;-67
2023/12/16 01:07:23;;;;;;;6.18;1.90;;;9.30;90.80;;;;;;6122370;23;20005;-66
2023/12/16 01:09:51;;;;;;;3.85;1.77;;;9.30;90.80;;;;;;6094694;23;20339;-69
2023/12/16 01:12:16;;;;;;;3.58;1.67;;;9.30;90.70;;;;;;6096193;23;20006;-66
2023/12/16 01:14:42;;;;;;;3.45;1.70;;;9.30;90.70;;;;;;6122518;23;20040;-68
2023/12/16 01:17:07;;;;;;;4.38;1.65;;;9.30;90.70;;;;;;6122490;23;20042;-66
2023/12/16 01:19:33;;;;;;;2.63;1.45;;;9.30;90.70;;;;;;6121556;23;20492;-67
2023/12/16 01:21:58;;;;;;;2.85;1.17;;;9.30;90.70;;;;;;6122150;23;20009;-67
2023/12/16 01:24:24;;;;;;;1.85;1.20;;;9.30;90.70;;;;;;6121993;23;19998;-67
2023/12/16 01:26:49;;;;;;;1.67;1.20;;;9.30;90.60;;;;;;6122322;23;20367;-66
2023/12/16 01:29:15;;;;;;;3.80;1.35;;;9.30;90.70;;;;;;6120989;23;20010;-68
2023/12/16 01:31:41;;;;;;;2.72;1.08;;;9.30;90.70;;;;;;6122623;23;20001;-66
2023/12/16 01:34:06;;;;;;;1.80;1.10;;;9.30;90.70;;;;;;6122392;23;20431;-66
2023/12/16 01:36:32;;;;;;;1.85;1.10;;;9.30;90.70;;;;;;6121951;23;20419;-67
2023/12/16 01:38:58;;;;;;;1.80;1.20;;;9.20;90.60;;;;;;6121916;23;20038;-66
2023/12/16 01:41:23;;;;;;;4.80;1.42;;;9.20;90.70;;;;;;6095882;23;20010;-65
2023/12/16 01:43:49;;;;;;;3.45;1.50;;;9.20;90.60;;;;;;6120952;23;20454;-65
2023/12/16 01:46:16;;;;;;;4.30;1.35;;;9.20;90.60;;;;;;6122005;23;20338;-65
2023/12/16 01:48:42;;;;;;;5.75;1.42;;;9.20;90.60;;;;;;6121721;23;19998;-65
2023/12/16 01:51:08;;;;;;;2.75;1.08;;;9.20;90.60;;;;;;6122083;23;20351;-65
2023/12/16 01:53:35;;;;;;;1.90;1.10;;;9.20;90.60;;;;;;6121782;23;20009;-63
2023/12/16 01:56:01;;;;;;;2.45;1.10;;;9.20;90.70;;;;;;6122388;23;20013;-66
2023/12/16 01:58:27;;;;;;;2.17;1.00;;;9.20;90.70;;;;;;6121984;23;20006;-65
2023/12/16 02:00:53;;;;;;;3.58;0.90;;;9.10;90.60;;;;;;6121629;23;20037;-66
2023/12/16 02:03:20;;;;;;;4.93;1.30;;;9.10;90.70;;;;;;6122006;23;20002;-65
2023/12/16 02:05:46;;;;;;;4.85;1.10;;;9.10;90.60;;;;;;6096421;23;20002;-64
2023/12/16 02:08:12;;;;;;;4.78;1.38;;;9.10;90.60;;;;;;6096478;23;19998;-65
2023/12/16 02:10:38;;;;;;;1.88;1.08;;;9.10;90.60;;;;;;6094933;23;20108;-65
2023/12/16 02:13:04;;;;;;;3.95;1.33;;;9.10;90.60;;;;;;6122681;23;20426;-65
2023/12/16 02:15:30;;;;;;;3.15;0.90;;;9.10;90.60;;;;;;6096118;23;20033;-65
2023/12/16 02:17:56;;;;;;;3.42;0.90;;;9.00;90.60;;;;;;6096047;23;20422;-65
2023/12/16 02:20:22;;;;;;;2.30;1.00;;;9.00;90.60;;;;;;6120648;23;20111;-66
2023/12/16 02:22:48;;;;;;;3.83;1.05;;;9.00;90.60;;;;;;6122063;23;20026;-66
2023/12/16 02:25:15;;;;;;;2.72;0.98;;;9.00;90.70;;;;;;6121652;23;20006;-65
2023/12/16 02:27:49;;;;;;;2.03;0.90;;;9.00;90.60;;;;;;6121810;23;19997;-65
2023/12/16 02:30:14;;;;;;;2.08;1.13;;;9.00;90.60;;;;;;6120811;23;20006;-65
2023/12/16 02:32:43;;;;;;;3.60;1.23;;;8.90;90.60;;;;;;6121562;23;19998;-65
2023/12/16 02:35:08;;;;;;;2.10;1.00;;;8.90;90.60;;;;;;6119858;23;20478;-66
2023/12/16 02:37:34;;;;;;;3.47;1.20;;;8.90;90.60;;;;;;6121914;23;20038;-65
2023/12/16 02:40:00;;;;;;;2.30;1.10;;;8.80;90.60;;;;;;6121342;23;20619;-64
2023/12/16 02:42:26;;;;;;;6.03;1.17;;;8.80;90.60;;;;;;6121530;23;20006;-65
2023/12/16 02:44:52;;;;;;;3.13;1.25;;;8.80;90.60;;;;;;6121303;23;20008;-64
2023/12/16 02:47:17;;;;;;;2.25;1.27;;;8.80;90.90;;;;;;6121423;23;20069;-66
2023/12/16 02:49:44;;;;;;;4.07;1.38;;;8.80;90.60;;;;;;6121510;23;20085;-66
2023/12/16 02:52:10;;;;;;;3.38;1.10;;;8.70;90.60;;;;;;6120640;23;20060;-64
2023/12/16 02:54:35;;;;;;;2.15;1.17;;;8.70;90.70;;;;;;6121665;23;20010;-65
2023/12/16 02:57:01;;;;;;;5.22;1.65;;;8.70;90.70;;;;;;6121921;23;20002;-65
2023/12/16 02:59:27;;;;;;;4.00;2.20;;;8.70;90.60;;;;;;6095251;23;20065;-65
2023/12/16 03:01:52;;;;;;;2.65;1.35;;;8.60;90.60;;;;;;6122243;23;20006;-65
2023/12/16 03:04:18;;;;;;;5.28;1.73;;;8.60;90.60;;;;;;6095791;23;20485;-65
2023/12/16 03:06:44;;;;;;;2.25;1.20;;;8.60;90.60;;;;;;6121908;23;20458;-66
2023/12/16 03:09:10;;;;;;;4.35;1.50;;;8.60;90.50;;;;;;6120660;23;20002;-65
2023/12/16 03:11:36;;;;;;;4.57;1.63;;;8.60;90.60;;;;;;6121823;23;20394;-65
2023/12/16 03:14:01;;;;;;;3.70;1.90;;;8.50;90.60;;;;;;6121384;23;20387;-66
2023/12/16 03:16:27;;;;;;;4.00;1.67;;;8.50;90.60;;;;;;6121816;23;20028;-65
2023/12/16 03:18:52;;;;;;;3.47;1.30;;;8.50;90.60;;;;;;6121534;23;20006;-65
2023/12/16 03:21:18;;;;;;;2.67;1.40;;;8.50;90.60;;;;;;6121457;23;20010;-66
2023/12/16 03:23:43;;;;;;;3.97;1.50;;;8.50;90.60;;;;;;6121962;23;20005;-65
2023/12/16 03:26:09;;;;;;;2.33;1.40;;;8.40;90.60;;;;;;6121150;23;20038;-64
2023/12/16 03:28:35;;;;;;;1.92;1.30;;;8.40;90.60;;;;;;6120264;23;20006;-66
2023/12/16 03:31:00;;;;;;;2.47;1.52;;;8.40;90.70;;;;;;6121687;23;20009;-66
2023/12/16 03:33:26;;;;;;;2.75;2.03;;;8.40;91.00;;;;;;6121143;23;20002;-64
2023/12/16 03:35:51;;;;;;;4.55;2.00;;;8.30;90.60;;;;;;6121732;23;20002;-65
2023/12/16 03:38:17;;;;;;;4.65;1.90;;;8.30;90.60;;;;;;6120992;23;20002;-66
2023/12/16 03:40:43;;;;;;;4.85;1.63;;;8.30;90.60;;;;;;6095051;23;20084;-65
2023/12/16 03:43:08;;;;;;;3.08;1.85;;;8.30;90.60;;;;;;6121370;23;20006;-66
2023/12/16 03:45:34;;;;;;;4.72;2.10;;;8.30;90.70;;;;;;6122008;23;20489;-66
2023/12/16 03:47:59;;;;;;;6.85;2.30;;;8.30;90.60;;;;;;6123680;23;19998;-65
2023/12/16 03:50:25;;;;;;;6.20;2.38;;;8.20;90.60;;;;;;6122271;23;20081;-64
2023/12/16 03:52:50;;;;;;;6.38;2.58;;;8.20;90.60;;;;;;6123344;23;20335;-65
2023/12/16 03:55:16;;;;;;;3.80;1.80;;;8.20;90.50;;;;;;6123625;23;20040;-64
2023/12/16 03:57:42;;;;;;;7.53;2.58;;;8.20;90.60;;;;;;6123507;23;20073;-64
2023/12/16 04:00:11;;;;;;;5.07;1.98;;;8.20;90.50;;;;;;6122622;23;20101;-65
2023/12/16 04:02:36;;;;;;;3.25;1.60;;;8.20;90.50;;;;;;6122791;23;20121;-65
2023/12/16 04:05:02;;;;;;;3.80;1.83;;;8.20;90.50;;;;;;6123465;23;20063;-65
2023/12/16 04:07:27;;;;;;;5.03;2.15;;;8.10;90.50;;;;;;6122789;23;20047;-65
2023/12/16 04:09:54;;;;;;;3.78;1.92;;;8.20;90.90;;;;;;6122509;23;20005;-65
2023/12/16 04:12:20;;;;;;;3.08;1.70;;;8.20;90.60;;;;;;6097159;23;20123;-65
2023/12/16 04:14:46;;;;;;;4.80;1.90;;;8.20;90.60;;;;;;6097287;23;20013;-65
2023/12/16 04:17:11;;;;;;;4.72;2.10;;;8.20;90.50;;;;;;6123170;23;20320;-66
2023/12/16 04:19:38;;;;;;;2.80;1.70;;;8.20;90.50;;;;;;6096065;23;20006;-65
2023/12/16 04:22:03;;;;;;;2.92;1.40;;;8.30;90.50;;;;;;6097473;23;20014;-66
2023/12/16 04:24:29;;;;;;;3.17;1.52;;;8.30;90.50;;;;;;6122496;23;20077;-67
2023/12/16 04:26:55;;;;;;;3.42;1.83;;;8.30;90.50;;;;;;6122776;23;20009;-65
2023/12/16 04:29:21;;;;;;;4.82;1.77;;;8.30;90.50;;;;;;6122302;23;20005;-67
2023/12/16 04:31:47;;;;;;;4.93;1.95;;;8.20;90.50;;;;;;6096954;23;20002;-65
2023/12/16 04:34:12;;;;;;;2.67;1.80;;;8.20;90.50;;;;;;6122302;23;20002;-66
2023/12/16 04:36:38;;;;;;;3.00;1.73;;;8.30;90.60;;;;;;6122729;23;20006;-68
2023/12/16 04:39:07;;;;;;;3.50;1.50;;;8.30;90.50;;;;;;6122388;23;20036;-66
2023/12/16 04:41:33;;;;;;;3.15;1.70;;;8.30;90.50;;;;;;6096471;23;20017;-65
2023/12/16 04:43:59;;;;;;;4.32;1.80;;;8.30;90.50;;;;;;6122431;23;19994;-65
2023/12/16 04:46:25;;;;;;;5.25;1.88;;;8.30;90.50;;;;;;6122889;23;20008;-65
2023/12/16 04:48:51;;;;;;;2.63;1.65;;;8.40;90.50;;;;;;6122183;23;20428;-65
2023/12/16 04:51:17;;;;;;;5.25;2.10;;;8.40;90.40;;;;;;6122666;23;20312;-67
2023/12/16 04:53:42;;;;;;;2.92;1.60;;;8.30;90.40;;;;;;6121858;23;20435;-65
2023/12/16 04:56:08;;;;;;;4.15;2.15;;;8.30;90.40;;;;;;6122661;23;20423;-66
2023/12/16 04:58:34;;;;;;;7.40;2.53;;;8.30;90.40;;;;;;6121064;23;20094;-66
2023/12/16 05:01:00;;;;;;;6.35;2.28;;;8.30;90.40;;;;;;6121933;23;20029;-65
2023/12/16 05:03:25;;;;;;;5.00;2.00;;;8.20;90.40;;;;;;6096075;23;20016;-66
2023/12/16 05:05:52;;;;;;;4.68;2.10;;;8.20;90.40;;;;;;6122922;23;20002;-66
2023/12/16 05:08:19;;;;;;;4.93;1.80;;;8.20;90.40;;;;;;6096847;23;20010;-65
2023/12/16 05:10:47;;;;;;;4.28;1.90;;;8.20;90.40;;;;;;6121472;23;20048;-66
2023/12/16 05:13:13;;;;;;;2.67;1.60;;;8.20;90.40;;;;;;6122900;23;20085;-65
2023/12/16 05:15:39;;;;;;;4.57;1.55;;;8.10;90.50;;;;;;6122195;23;20130;-65
2023/12/16 05:18:08;;;;;;;4.82;2.00;;;8.10;90.50;;;;;;6122478;23;20455;-65
2023/12/16 05:20:34;;;;;;;4.65;2.05;;;8.10;90.50;;;;;;6122019;23;20057;-66
2023/12/16 05:23:00;;;;;;;4.15;2.10;;;8.10;90.60;;;;;;6122961;23;20006;-65
2023/12/16 05:25:28;;;;;;;4.55;2.33;;;8.00;90.60;;;;;;6122550;23;20002;-65
2023/12/16 05:27:54;;;;;;;7.68;2.78;;;8.00;90.60;;;;;;6122812;23;20029;-66
2023/12/16 05:30:19;;;;;;;4.13;2.20;;;8.00;90.60;;;;;;6122486;23;19998;-66
2023/12/16 05:32:46;;;;;;;6.40;2.25;;;8.00;90.60;;;;;;6124037;23;20045;-65
2023/12/16 05:35:12;;;;;;;4.82;2.20;;;8.00;90.60;;;;;;6122654;23;20002;-66
2023/12/16 05:37:37;;;;;;;7.75;3.05;;;8.00;90.60;;;;;;6122310;23;20010;-66
2023/12/16 05:40:03;;;;;;;7.78;2.65;;;8.00;90.60;;;;;;6120345;23;20010;-66
2023/12/16 05:42:30;;;;;;;8.45;2.50;;;7.90;90.60;;;;;;6122019;23;20085;-66
2023/12/16 05:44:55;;;;;;;6.10;2.40;;;7.90;90.70;;;;;;6094339;23;20002;-66
2023/12/16 05:47:21;;;;;;;5.18;1.73;;;7.90;90.70;;;;;;6122303;23;20077;-66
2023/12/16 05:49:47;;;;;;;5.55;2.20;;;7.90;90.70;;;;;;6120916;23;20119;-66
2023/12/16 05:52:12;;;;;;;4.30;1.85;;;7.90;90.70;;;;;;6122558;23;20204;-66
2023/12/16 05:54:38;;;;;;;4.43;2.08;;;7.90;90.70;;;;;;6122229;23;20009;-65
2023/12/16 05:57:04;;;;;;;3.60;1.83;;;7.80;90.70;;;;;;6123902;23;20033;-66
2023/12/16 05:59:30;;;;;;;3.00;1.65;;;7.90;90.80;;;;;;6120781;23;20013;-66
2023/12/16 06:01:55;;;;;;;3.70;1.52;;;7.80;90.80;;;;;;6121698;23;20005;-64
2023/12/16 06:04:21;;;;;;;4.22;2.13;;;7.90;90.90;;;;;;6122254;23;19998;-64
2023/12/16 06:06:47;;;;;;;3.20;1.48;;;7.80;90.90;;;;;;6121843;23;20006;-66
2023/12/16 06:09:13;;;;;;;4.85;1.70;;;7.80;90.90;;;;;;6121205;23;20036;-66
2023/12/16 06:11:39;;;;;;;4.32;1.50;;;7.80;91.00;;;;;;6122084;23;20002;-65
2023/12/16 06:14:05;;;;;;;4.43;1.60;;;7.80;91.30;;;;;;6121993;23;20043;-64
2023/12/16 06:16:31;;;;;;;4.13;1.60;;;7.80;91.00;;;;;;6096012;23;20013;-65
2023/12/16 06:18:56;;;;;;;3.60;1.55;;;7.80;91.10;;;;;;6121174;23;20002;-64
2023/12/16 06:21:22;;;;;;;3.88;1.70;;;7.80;91.10;;;;;;6121777;23;20010;-65
2023/12/16 06:23:47;;;;;;;4.90;1.80;;;7.70;91.10;;;;;;6121869;23;20338;-65
2023/12/16 06:26:14;;;;;;;4.38;1.80;;;7.80;91.20;;;;;;6095747;23;20029;-65
2023/12/16 06:28:39;;;;;;;5.47;1.70;;;7.80;91.20;;;;;;6090447;23;20014;-64
2023/12/16 06:31:05;;;;;;;4.32;1.88;;;7.80;91.20;;;;;;6090722;23;20490;-64
2023/12/16 06:33:31;;;;;;;6.30;1.85;;;7.80;91.20;;;;;;6092549;23;20355;-65
2023/12/16 06:35:56;;;;;;;5.07;2.47;;;7.80;91.20;;;;;;6092684;23;20002;-64
2023/12/16 06:38:22;;;;;;;4.50;2.00;;;7.70;91.10;;;;;;6092378;23;20335;-64
2023/12/16 06:40:47;;;;;;;7.03;2.47;;;7.70;91.20;;;;;;6091317;23;20081;-63
2023/12/16 06:43:13;;;;;;;4.90;2.15;;;7.70;91.50;;;;;;6092459;23;20286;-66
2023/12/16 06:45:38;;;;;;;4.25;1.75;;;7.70;91.20;;;;;;6091980;23;20009;-65
2023/12/16 06:48:04;;;;;;;3.40;1.50;;;7.70;91.20;;;;;;6092769;23;20019;-65
2023/12/16 06:50:30;;;;;;;6.57;2.08;;;7.70;91.30;;;;;;6091727;23;20060;-64
2023/12/16 06:52:56;;;;;;;4.50;1.90;;;7.70;91.30;;;;;;6092600;23;20006;-66
2023/12/16 06:55:21;;;;;;;2.72;1.63;;;7.70;91.30;;;;;;6092429;23;20037;-65
2023/12/16 06:57:47;;;;;;;7.38;2.10;;;7.60;91.30;;;;;;6092651;23;20054;-66
2023/12/16 07:00:13;;;;;;;5.72;1.90;;;7.60;91.40;;;;;;6092386;23;20006;-64
2023/12/16 07:02:43;;;;;;;6.22;1.90;;;7.70;91.40;;;;;;6093709;23;20431;-64
2023/12/16 07:05:12;;;;;;;3.45;1.75;;;7.60;91.40;;;;;;6091977;23;20002;-64
2023/12/16 07:07:38;;;;;;;4.60;1.80;;;7.60;91.40;;;;;;6092458;23;20022;-67
2023/12/16 07:10:07;;;;;;;3.40;1.70;;;7.60;91.40;;;;;;6091455;23;20026;-65
2023/12/16 07:12:32;;;;;;;2.97;1.40;;;7.60;91.50;;;;;;6091825;23;20577;-66
2023/12/16 07:14:58;;;;;;;2.72;1.48;;;7.60;91.50;;;;;;6092139;23;20002;-65
2023/12/16 07:17:24;;;;;;;1.80;1.27;;;7.60;91.50;;;;;;6093127;23;20010;-66
2023/12/16 07:19:50;;;;;;;5.95;1.85;;;7.60;91.50;;;;;;6094161;23;20002;-65
2023/12/16 07:22:16;;;;;;;5.85;2.08;;;7.60;91.60;;;;;;6095368;23;20006;-66
2023/12/16 07:24:42;;;;;;;5.68;2.03;;;7.60;91.60;;;;;;6093978;23;19998;-65
2023/12/16 07:27:08;;;;;;;9.52;2.63;;;7.60;91.90;;;;;;6093715;23;20065;-65
2023/12/16 07:29:35;;;;;;;4.65;1.90;;;7.60;91.60;;;;;;6119108;23;20097;-65
2023/12/16 07:32:00;;;;;;;3.63;1.92;;;7.50;91.60;;;;;;6123711;23;20457;-65
2023/12/16 07:34:26;;;;;;;6.38;2.28;;;7.50;91.60;;;;;;6123439;23;20080;-62
2023/12/16 07:36:52;;;;;;;4.57;1.95;;;7.50;91.60;;;;;;6123523;23;20036;-65
2023/12/16 07:39:18;;;;;;;7.35;3.08;;;7.50;91.60;;;;;;6123111;23;20002;-64
2023/12/16 07:41:44;;;;;;;6.95;2.22;;;7.50;91.70;;;;;;6120991;23;20005;-65
2023/12/16 07:44:11;;;;;;;4.43;2.15;;;7.50;91.70;;;;;;6122937;23;20065;-66
2023/12/16 07:46:40;;;;;;;4.63;1.52;;;7.50;91.70;;;;;;6122754;23;20002;-65
2023/12/16 07:49:06;;;;;;;5.28;2.00;;;7.50;91.70;;;;;;6097042;23;20006;-66
2023/12/16 07:51:32;;;;;;;3.75;1.88;;;7.60;91.70;;;;;;6123306;23;20010;-66
2023/12/16 07:53:58;;;;;;;3.90;1.75;;;7.60;91.70;;;;;;6123789;23;20009;-66
2023/12/16 07:56:26;;;;;;;2.97;1.65;;;7.60;91.70;;;;;;6124342;23;20375;-64
2023/12/16 07:58:53;;;;;;;7.47;1.90;;;7.60;91.70;;;;;;6121966;23;20002;-65
2023/12/16 08:01:19;;;;;;;7.25;2.13;;;7.60;91.70;;;;;;6122835;23;20001;-65
2023/12/16 08:03:45;;;;;;;7.38;2.20;;;7.60;91.70;;;;;;6123016;23;20026;-65
2023/12/16 08:06:11;;;;;;;2.55;1.70;;;7.60;91.70;;;;;;6123889;23;20006;-65
2023/12/16 08:08:40;;;;;;;5.00;2.33;;;7.60;91.70;;;;;;6122987;23;20038;-63
2023/12/16 08:11:06;;;;;;;4.85;2.35;;;7.60;91.70;;;;;;6123017;23;20457;-65
2023/12/16 08:13:32;;;;;;;5.60;2.30;;;7.60;91.60;;;;;;6122961;23;20072;-65
2023/12/16 08:15:58;;;;;;;7.00;2.53;;;7.60;91.70;;;;;;6123950;23;20002;-65
2023/12/16 08:18:26;;;;;;;5.85;2.20;;;7.60;91.70;;;;;;6123167;23;20008;-65
2023/12/16 08:20:52;;;;;;;5.55;1.77;;;7.60;91.70;;;;;;6122128;23;20033;-65
2023/12/16 08:23:17;;;;;;;4.63;1.80;;;7.70;91.70;;;;;;6123471;23;20002;-66
2023/12/16 08:25:44;;;;;;;5.53;1.80;;;7.70;91.80;;;;;;6123038;23;20006;-66
2023/12/16 08:28:09;;;;;;;3.83;2.00;;;7.70;91.70;;;;;;6122365;23;20009;-66
2023/12/16 08:30:35;;;;;;;4.57;1.42;;;7.70;91.80;;;;;;6121633;23;20002;-65
2023/12/16 08:33:00;;;;;;;3.60;1.80;;;7.80;91.80;;;;;;6122829;23;20017;-64
2023/12/16 08:35:27;;;;;;;4.18;1.85;;;7.80;91.80;;;;;;6121919;23;20061;-64
2023/12/16 08:37:55;;;;;;;5.72;2.35;;;7.80;91.70;;;;;;6122505;23;20014;-64
2023/12/16 08:40:21;;;;;;;5.35;1.70;;;7.90;91.70;;;;;;6121787;23;20001;-64
2023/12/16 08:42:46;;;;;;;4.63;1.83;;;7.90;91.70;;;;;;6122361;23;20056;-65
2023/12/16 08:45:13;;;;;;;2.63;1.50;;;7.90;91.70;;;;;;6122546;23;20002;-66
2023/12/16 08:47:39;;;;;;;5.55;2.17;;;8.00;91.70;;;;;;6122224;23;20077;-65
2023/12/16 08:50:06;;;;;;;4.03;1.60;;;8.00;91.60;;;;;;6120159;23;20033;-65
2023/12/16 08:52:33;;;;;;;5.38;2.00;;;8.10;91.60;;;;;;6120672;23;20556;-65
2023/12/16 08:54:59;;;;;;;3.40;2.13;;;8.20;91.60;;;;;;6096962;23;20010;-66
2023/12/16 08:57:25;;;;;;;7.25;2.28;;;8.30;91.50;;;;;;6096204;23;20029;-64
2023/12/16 08:59:51;;;;;;;3.38;1.70;;;8.30;91.50;;;;;;6121490;23;20419;-65
2023/12/16 09:02:16;;;;;;;2.85;1.40;;;8.40;91.50;;;;;;6122680;23;20080;-66
2023/12/16 09:04:42;;;;;;;7.50;2.20;;;8.40;91.40;;;;;;6122546;23;20002;-65
2023/12/16 09:07:08;;;;;;;10.13;2.58;;;8.40;91.40;;;;;;6121561;23;20257;-65
2023/12/16 09:09:33;;;;;;;5.03;2.38;;;8.50;91.40;;;;;;6121371;23;20006;-65
2023/12/16 09:11:59;;;;;;;3.95;1.83;;;8.50;91.40;;;;;;6122201;23;20002;-64
2023/12/16 09:14:24;;;;;;;6.03;2.42;;;8.60;91.40;;;;;;6122334;23;20084;-65
2023/12/16 09:16:50;;;;;;;6.38;1.73;;;8.60;91.40;;;;;;6120720;23;20006;-65
2023/12/16 09:19:16;;;;;;;4.35;1.73;;;8.60;91.40;;;;;;6120254;23;20438;-66
2023/12/16 09:21:42;;;;;;;3.97;1.70;;;8.60;91.40;;;;;;6122360;23;20013;-65
2023/12/16 09:24:08;;;;;;;2.83;1.38;;;8.70;91.40;;;;;;6122482;23;20014;-66
2023/12/16 09:26:33;;;;;;;2.08;1.20;;;8.70;91.30;;;;;;6122130;23;20454;-66
2023/12/16 09:29:00;;;;;;;7.10;1.83;;;8.80;91.30;;;;;;6091244;23;20067;-66
2023/12/16 09:31:26;;;;;;;3.70;1.38;;;8.80;91.30;;;;;;6093414;23;20406;-66
2023/12/16 09:33:51;;;;;;;3.20;1.52;;;8.80;91.30;;;;;;6092655;23;20046;-66
2023/12/16 09:36:17;;;;;;;5.25;1.67;;;8.90;91.30;;;;;;6093340;23;20006;-65
2023/12/16 09:38:43;;;;;;;5.18;1.70;;;8.90;91.30;;;;;;6092747;23;19995;-66
2023/12/16 09:41:23;;;;;;;3.35;1.70;;;8.90;91.40;;;;;;6092762;23;20002;-65
2023/12/16 09:43:53;;;;;;;3.47;1.40;;;8.90;91.70;;;;;;6092916;23;20033;-65
2023/12/16 09:46:32;;;;;;;5.30;1.80;;;9.00;91.40;;;;;;6093399;23;20018;-66
2023/12/16 09:48:59;;;;;;;3.60;1.58;;;9.00;91.40;;;;;;6091435;23;20379;-66
2023/12/16 09:51:25;;;;;;;2.20;1.30;;;9.00;91.40;;;;;;6093286;23;20057;-65
2023/12/16 09:53:52;;;;;;;6.72;1.85;;;9.10;91.40;;;;;;6093335;23;19998;-65
2023/12/16 09:56:19;;;;;;;5.47;1.50;;;9.10;91.40;;;;;;6093617;23;20003;-66
2023/12/16 09:58:48;;;;;;;3.35;1.70;;;9.10;91.40;;;;;;6093416;23;20005;-65
2023/12/16 10:01:16;;;;;;;4.82;1.60;;;9.10;91.50;;;;;;6093220;23;20057;-65
2023/12/16 10:03:46;;;;;;;3.75;1.35;;;9.20;91.50;;;;;;6093057;23;20436;-66
2023/12/16 10:06:12;;;;;;;8.88;3.15;;;9.20;91.50;;;;;;6093050;23;20002;-65
2023/12/16 10:08:39;;;;;;;6.28;2.15;;;9.10;91.50;;;;;;6092708;23;20481;-65
2023/12/16 10:11:05;;;;;;;3.90;2.20;;;9.20;91.60;;;;;;6091989;23;20073;-66
2023/12/16 10:13:32;;;;;;;7.10;2.30;;;9.20;91.60;;;;;;6092572;23;20035;-66
2023/12/16 10:15:59;;;;;;;6.05;2.25;;;9.20;91.60;;;;;;6092515;23;20002;-66
2023/12/16 10:18:27;;;;;;;4.00;2.05;;;9.20;91.70;;;;;;6092188;23;20010;-66
2023/12/16 10:20:55;;;;;;;6.38;2.03;;;9.20;91.70;;;;;;6091251;23;20006;-65
2023/12/16 10:23:23;;;;;;;5.38;1.92;;;9.20;91.70;;;;;;6092552;23;20081;-65
2023/12/16 10:25:49;;;;;;;5.63;2.28;;;9.30;91.80;;;;;;6092562;23;20008;-66
2023/12/16 10:28:14;;;;;;;5.68;2.15;;;9.30;91.80;;;;;;6101139;23;20439;-66
2023/12/16 10:30:41;;;;;;;5.00;2.00;;;9.30;91.80;;;;;;6120556;23;20004;-66
2023/12/16 10:33:09;;;;;;;5.75;2.30;;;9.30;91.80;;;;;;6122099;23;20013;-66
2023/12/16 10:35:36;;;;;;;5.63;2.22;;;9.30;91.80;;;;;;6122321;23;20447;-66
2023/12/16 10:38:02;;;;;;;4.53;1.88;;;9.30;91.80;;;;;;6122564;23;20002;-67
2023/12/16 10:40:28;;;;;;;4.00;2.10;;;9.40;91.90;;;;;;6121336;23;20060;-65
2023/12/16 10:42:54;;;;;;;3.95;2.17;;;9.40;91.90;;;;;;6095714;23;20463;-65
2023/12/16 10:45:19;;;;;;;4.22;1.75;;;9.50;91.90;;;;;;6120226;23;19998;-66
2023/12/16 10:47:49;;;;;;;4.40;1.98;;;9.50;91.90;;;;;;6121549;23;19998;-67
2023/12/16 10:50:15;;;;;;;4.63;2.55;;;9.60;91.90;;;;;;6121157;23;20005;-66
2023/12/16 10:53:02;;;;;;;5.97;2.45;;;9.60;91.90;;;;;;6096129;23;20002;-66
2023/12/16 10:55:49;;;;;;;7.30;2.92;;;9.60;92.00;;;;;;6122028;23;20446;-65
2023/12/16 10:58:23;;;;;;;4.70;2.40;;;9.60;92.00;;;;;;6120530;23;20125;-66
2023/12/16 11:00:51;;;;;;;4.55;2.40;;;9.70;92.00;;;;;;6120142;23;20044;-66
2023/12/16 11:03:28;;;;;;;5.97;2.92;;;9.70;92.00;;;;;;6121080;23;20006;-66
2023/12/16 11:06:00;;;;;;;7.43;3.08;;;9.70;92.10;;;;;;6120294;23;20006;-66
2023/12/16 11:08:27;;;;;;;5.70;2.60;;;9.80;92.20;;;;;;6119740;23;20002;-66
2023/12/16 11:10:54;;;;;;;7.32;2.45;;;9.80;92.20;;;;;;6118769;23;20002;-65
2023/12/16 11:13:21;;;;;;;9.50;3.53;;;9.80;92.20;;;;;;6121584;23;20088;-66
2023/12/16 11:15:52;;;;;;;8.52;3.50;;;9.80;92.30;;;;;;6121659;23;20052;-66
2023/12/16 11:18:22;;;;;;;5.57;2.80;;;9.70;92.40;;;;;;6120300;23;20125;-65
2023/12/16 11:20:53;;;;;;;6.70;2.83;;;9.70;92.50;;;;;;6120352;23;20467;-67
2023/12/16 11:23:19;;;;;;;7.50;3.30;;;9.70;92.60;;;;;;6121779;23;20034;-65
2023/12/16 11:25:47;;;;;;;4.85;2.55;;;9.70;92.70;;;;;;6121959;23;20054;-66
2023/12/16 11:28:14;;;;;;;8.50;3.03;;;9.70;92.80;;;;;;6121648;23;20006;-66
2023/12/16 11:30:41;;;;;;;10.25;3.20;;;9.70;92.90;;;;;;6120835;23;20069;-66
2023/12/16 11:33:06;;;;;;;7.40;3.05;;;9.70;93.00;;;;;;6121808;23;20002;-66
2023/12/16 11:35:35;;;;;;;7.03;2.92;;;9.70;93.10;;;;;;6122026;23;20012;-65
2023/12/16 11:38:01;;;;;;;7.63;2.88;;;9.70;93.20;;;;;;6120003;23;20006;-66
2023/12/16 11:40:51;;;;;;;5.20;1.98;;;9.70;93.30;;;;;;6119854;23;20032;-65
2023/12/16 11:43:17;;;;;;;7.25;2.80;;;9.70;93.40;;;;;;6121031;23;20426;-65
2023/12/16 11:45:45;;;;;;;5.00;2.45;;;9.70;93.50;;;;;;6121410;23;20001;-66
2023/12/16 11:48:15;;;;;;;5.40;2.10;;;9.70;93.50;;;;;;6120490;23;20442;-66
2023/12/16 11:50:46;;;;;;;5.40;2.30;;;9.70;93.60;;;;;;6120378;23;20002;-66
2023/12/16 11:53:13;;;;;;;4.53;1.80;;;9.70;93.70;;;;;;6120808;23;20516;-66
2023/12/16 11:55:39;;;;;;;6.03;1.90;;;9.70;93.70;;;;;;6120930;23;20002;-65
2023/12/16 11:58:05;;;;;;;5.10;2.33;;;9.70;93.70;;;;;;6118632;23;20010;-66
2023/12/16 12:00:31;;;;;;;7.72;2.80;;;9.70;93.80;;;;;;6120940;23;20406;-67
2023/12/16 12:03:00;;;;;;;6.07;2.42;;;9.70;93.80;;;;;;6121428;23;20009;-66
2023/12/16 12:05:26;;;;;;;5.55;2.42;;;9.70;93.90;;;;;;6124234;23;19998;-66
2023/12/16 12:07:52;;;;;;;6.47;2.83;;;9.70;94.00;;;;;;6123481;23;20002;-66
2023/12/16 12:10:17;;;;;;;7.43;3.67;;;9.70;94.00;;;;;;6122874;23;20036;-66
2023/12/16 12:12:43;;;;;;;3.85;2.00;;;9.70;94.10;;;;;;6123420;23;20049;-66
2023/12/16 12:15:09;;;;;;;5.80;2.30;;;9.80;94.10;;;;;;6118814;23;20056;-67
2023/12/16 12:17:36;;;;;;;3.22;1.90;;;9.70;94.20;;;;;;6121611;23;20001;-67
2023/12/16 12:20:02;;;;;;;2.35;1.50;;;9.70;94.20;;;;;;6119720;23;20013;-66
2023/12/16 12:22:28;;;;;;;3.90;1.92;;;9.80;94.60;;;;;;6123001;23;20006;-66
2023/12/16 12:24:56;;;;;;;3.05;1.90;;;9.80;94.30;;;;;;6121558;23;20006;-67
2023/12/16 12:27:21;;;;;;;2.88;1.80;;;9.80;94.40;;;;;;6122385;23;20049;-66
2023/12/16 12:30:06;;;;;;;3.47;2.17;;;9.80;94.40;;;;;;6121590;23;20014;-66
2023/12/16 12:32:33;;;;;;;7.88;3.33;;;9.80;94.50;;;;;;6123629;23;20039;-67
2023/12/16 12:35:05;;;;;;;3.70;2.30;;;9.70;94.70;;;;;;6123016;23;20010;-65
2023/12/16 12:37:43;;;;;;;4.32;1.90;;;9.70;94.70;;;;;;6123086;23;20002;-66
2023/12/16 12:40:13;;;;;;;3.33;2.00;;;9.80;94.80;;;;;;6122188;23;20009;-66
2023/12/16 12:42:56;;;;;;;7.28;3.33;;;9.70;94.80;;;;;;6122704;23;20381;-66
2023/12/16 12:45:33;;;;;;;7.50;3.08;;;9.70;94.90;;;;;;6123528;23;19998;-66
2023/12/16 12:48:13;;;;;;;5.47;2.60;;;9.70;95.00;;;;;;6123038;23;20458;-66
2023/12/16 12:50:40;;;;;;;6.22;3.17;;;9.70;95.10;;;;;;6122582;23;20006;-66
2023/12/16 12:53:19;;;;;;;5.63;3.13;;;9.70;95.10;;;;;;6122763;23;20443;-67
2023/12/16 12:55:46;;;;;;;4.82;2.40;;;9.70;95.20;;;;;;6122811;23;20006;-65